sensor_id;sensor_type;location;lat;lon;timestamp;P1;durP1;ratioP1;P2;durP2;ratioP2
55633;SDS011;41504;53.162;6.788;2023-04-02T00:05:38;7.38;;;3.10;;
55633;SDS011;41504;53.162;6.788;2023-04-02T00:08:19;8.05;;;3.28;;
55633;SDS011;41504;53.162;6.788;2023-04-02T00:10:49;7.22;;;3.15;;
55633;SDS011;41504;53.162;6.788;2023-04-02T00:15:54;7.85;;;3.08;;
55633;SDS011;41504;53.162;6.788;2023-04-02T00:18:22;6.35;;;2.97;;
55633;SDS011;41504;53.162;6.788;2023-04-02T00:21:04;7.32;;;3.55;;
55633;SDS011;41504;53.162;6.788;2023-04-02T00:23:41;7.65;;;2.95;;
55633;SDS011;41504;53.162;6.788;2023-04-02T00:28:46;7.03;;;2.97;;
55633;SDS011;41504;53.162;6.788;2023-04-02T00:31:12;8.43;;;2.80;;
55633;SDS011;41504;53.162;6.788;2023-04-02T00:33:37;8.27;;;2.90;;
55633;SDS011;41504;53.162;6.788;2023-04-02T00:36:07;6.95;;;2.97;;
55633;SDS011;41504;53.162;6.788;2023-04-02T00:38:35;7.03;;;3.13;;
55633;SDS011;41504;53.162;6.788;2023-04-02T00:41:03;5.93;;;2.60;;
55633;SDS011;41504;53.162;6.788;2023-04-02T00:43:32;7.45;;;3.38;;
55633;SDS011;41504;53.162;6.788;2023-04-02T00:46:01;7.80;;;3.25;;
55633;SDS011;41504;53.162;6.788;2023-04-02T00:51:58;7.47;;;2.80;;
55633;SDS011;41504;53.162;6.788;2023-04-02T00:54:27;7.82;;;3.40;;
55633;SDS011;41504;53.162;6.788;2023-04-02T00:56:56;7.50;;;3.08;;
55633;SDS011;41504;53.162;6.788;2023-04-02T00:59:27;8.00;;;3.13;;
55633;SDS011;41504;53.162;6.788;2023-04-02T01:01:58;8.68;;;3.50;;
55633;SDS011;41504;53.162;6.788;2023-04-02T01:04:53;8.65;;;3.75;;
55633;SDS011;41504;53.162;6.788;2023-04-02T01:07:22;7.70;;;3.50;;
55633;SDS011;41504;53.162;6.788;2023-04-02T01:15:28;9.02;;;3.30;;
55633;SDS011;41504;53.162;6.788;2023-04-02T01:18:36;8.05;;;3.20;;
55633;SDS011;41504;53.162;6.788;2023-04-02T01:21:22;6.82;;;2.97;;
55633;SDS011;41504;53.162;6.788;2023-04-02T01:27:12;6.72;;;3.00;;
55633;SDS011;41504;53.162;6.788;2023-04-02T01:31:58;7.47;;;2.72;;
55633;SDS011;41504;53.162;6.788;2023-04-02T01:34:27;6.97;;;2.70;;
55633;SDS011;41504;53.162;6.788;2023-04-02T01:42:03;8.30;;;2.65;;
55633;SDS011;41504;53.162;6.788;2023-04-02T01:44:50;7.45;;;2.67;;
55633;SDS011;41504;53.162;6.788;2023-04-02T01:47:29;9.00;;;2.90;;
55633;SDS011;41504;53.162;6.788;2023-04-02T01:50:10;8.15;;;3.00;;
55633;SDS011;41504;53.162;6.788;2023-04-02T01:52:58;7.90;;;2.92;;
55633;SDS011;41504;53.162;6.788;2023-04-02T01:55:34;6.97;;;2.55;;
55633;SDS011;41504;53.162;6.788;2023-04-02T01:58:05;6.75;;;2.63;;
55633;SDS011;41504;53.162;6.788;2023-04-02T02:00:33;8.60;;;2.95;;
55633;SDS011;41504;53.162;6.788;2023-04-02T02:03:01;7.72;;;2.58;;
55633;SDS011;41504;53.162;6.788;2023-04-02T02:05:28;6.93;;;2.35;;
55633;SDS011;41504;53.162;6.788;2023-04-02T02:07:54;7.03;;;2.40;;
55633;SDS011;41504;53.162;6.788;2023-04-02T02:10:28;5.47;;;2.25;;
55633;SDS011;41504;53.162;6.788;2023-04-02T02:12:59;7.53;;;2.88;;
55633;SDS011;41504;53.162;6.788;2023-04-02T02:15:25;6.45;;;2.30;;
55633;SDS011;41504;53.162;6.788;2023-04-02T02:17:56;5.30;;;2.28;;
55633;SDS011;41504;53.162;6.788;2023-04-02T02:20:25;7.13;;;2.28;;
55633;SDS011;41504;53.162;6.788;2023-04-02T02:22:52;7.70;;;2.33;;
55633;SDS011;41504;53.162;6.788;2023-04-02T02:25:19;8.93;;;2.50;;
55633;SDS011;41504;53.162;6.788;2023-04-02T02:30:47;5.78;;;2.35;;
55633;SDS011;41504;53.162;6.788;2023-04-02T02:33:26;6.53;;;2.03;;
55633;SDS011;41504;53.162;6.788;2023-04-02T02:36:15;5.93;;;2.03;;
55633;SDS011;41504;53.162;6.788;2023-04-02T02:39:03;6.07;;;2.03;;
55633;SDS011;41504;53.162;6.788;2023-04-02T02:46:35;7.25;;;2.20;;
55633;SDS011;41504;53.162;6.788;2023-04-02T02:49:04;6.65;;;2.13;;
55633;SDS011;41504;53.162;6.788;2023-04-02T02:54:32;7.03;;;1.90;;
55633;SDS011;41504;53.162;6.788;2023-04-02T02:57:01;6.05;;;2.20;;
55633;SDS011;41504;53.162;6.788;2023-04-02T02:59:31;5.35;;;1.90;;
55633;SDS011;41504;53.162;6.788;2023-04-02T03:01:58;6.55;;;2.15;;
55633;SDS011;41504;53.162;6.788;2023-04-02T03:04:25;7.88;;;2.17;;
55633;SDS011;41504;53.162;6.788;2023-04-02T03:06:55;7.15;;;1.90;;
55633;SDS011;41504;53.162;6.788;2023-04-02T03:09:44;5.57;;;1.90;;
55633;SDS011;41504;53.162;6.788;2023-04-02T03:17:46;4.00;;;1.70;;
55633;SDS011;41504;53.162;6.788;2023-04-02T03:20:23;5.30;;;2.10;;
55633;SDS011;41504;53.162;6.788;2023-04-02T03:23:14;5.32;;;2.00;;
55633;SDS011;41504;53.162;6.788;2023-04-02T03:25:49;9.02;;;2.00;;
55633;SDS011;41504;53.162;6.788;2023-04-02T03:28:39;5.40;;;2.03;;
55633;SDS011;41504;53.162;6.788;2023-04-02T03:31:18;6.38;;;2.03;;
55633;SDS011;41504;53.162;6.788;2023-04-02T03:33:52;6.55;;;1.95;;
55633;SDS011;41504;53.162;6.788;2023-04-02T03:41:54;6.72;;;1.83;;
55633;SDS011;41504;53.162;6.788;2023-04-02T03:44:32;8.45;;;2.38;;
55633;SDS011;41504;53.162;6.788;2023-04-02T03:47:09;7.22;;;2.67;;
55633;SDS011;41504;53.162;6.788;2023-04-02T03:52:32;6.22;;;1.90;;
55633;SDS011;41504;53.162;6.788;2023-04-02T03:55:02;6.50;;;1.90;;
55633;SDS011;41504;53.162;6.788;2023-04-02T03:57:46;6.30;;;2.00;;
55633;SDS011;41504;53.162;6.788;2023-04-02T04:00:24;7.13;;;1.90;;
55633;SDS011;41504;53.162;6.788;2023-04-02T04:03:13;5.85;;;2.03;;
55633;SDS011;41504;53.162;6.788;2023-04-02T04:05:49;7.50;;;2.22;;
55633;SDS011;41504;53.162;6.788;2023-04-02T04:08:49;7.35;;;2.20;;
55633;SDS011;41504;53.162;6.788;2023-04-02T04:11:23;6.18;;;2.15;;
55633;SDS011;41504;53.162;6.788;2023-04-02T04:22:23;4.72;;;1.67;;
55633;SDS011;41504;53.162;6.788;2023-04-02T04:24:58;8.18;;;2.42;;
55633;SDS011;41504;53.162;6.788;2023-04-02T04:32:37;7.28;;;2.10;;
55633;SDS011;41504;53.162;6.788;2023-04-02T04:37:55;6.70;;;2.08;;
55633;SDS011;41504;53.162;6.788;2023-04-02T04:40:30;5.35;;;1.83;;
55633;SDS011;41504;53.162;6.788;2023-04-02T04:43:00;5.00;;;2.03;;
55633;SDS011;41504;53.162;6.788;2023-04-02T04:50:48;5.72;;;1.80;;
55633;SDS011;41504;53.162;6.788;2023-04-02T04:53:22;6.70;;;1.90;;
55633;SDS011;41504;53.162;6.788;2023-04-02T04:55:54;6.30;;;2.28;;
55633;SDS011;41504;53.162;6.788;2023-04-02T04:58:34;6.32;;;1.80;;
55633;SDS011;41504;53.162;6.788;2023-04-02T05:01:26;6.88;;;2.20;;
55633;SDS011;41504;53.162;6.788;2023-04-02T05:04:11;9.52;;;2.40;;
55633;SDS011;41504;53.162;6.788;2023-04-02T05:07:02;6.85;;;1.70;;
55633;SDS011;41504;53.162;6.788;2023-04-02T05:09:44;7.32;;;2.03;;
55633;SDS011;41504;53.162;6.788;2023-04-02T05:12:36;4.75;;;1.85;;
55633;SDS011;41504;53.162;6.788;2023-04-02T05:15:28;7.70;;;1.90;;
55633;SDS011;41504;53.162;6.788;2023-04-02T05:18:00;7.05;;;2.05;;
55633;SDS011;41504;53.162;6.788;2023-04-02T05:20:33;6.13;;;1.92;;
55633;SDS011;41504;53.162;6.788;2023-04-02T05:23:28;6.22;;;1.90;;
55633;SDS011;41504;53.162;6.788;2023-04-02T05:31:24;5.57;;;1.95;;
55633;SDS011;41504;53.162;6.788;2023-04-02T05:33:57;6.63;;;1.92;;
55633;SDS011;41504;53.162;6.788;2023-04-02T05:36:24;5.28;;;1.80;;
55633;SDS011;41504;53.162;6.788;2023-04-02T05:38:51;6.13;;;1.80;;
55633;SDS011;41504;53.162;6.788;2023-04-02T05:41:28;6.65;;;1.83;;
55633;SDS011;41504;53.162;6.788;2023-04-02T05:46:53;4.90;;;1.83;;
55633;SDS011;41504;53.162;6.788;2023-04-02T05:49:38;4.70;;;1.75;;
55633;SDS011;41504;53.162;6.788;2023-04-02T05:52:56;6.88;;;2.10;;
55633;SDS011;41504;53.162;6.788;2023-04-02T05:55:28;5.68;;;1.98;;
55633;SDS011;41504;53.162;6.788;2023-04-02T05:58:03;4.65;;;1.80;;
55633;SDS011;41504;53.162;6.788;2023-04-02T06:03:15;7.05;;;1.90;;
55633;SDS011;41504;53.162;6.788;2023-04-02T06:05:51;5.78;;;2.03;;
55633;SDS011;41504;53.162;6.788;2023-04-02T06:08:21;7.43;;;2.10;;
55633;SDS011;41504;53.162;6.788;2023-04-02T06:11:03;5.03;;;1.60;;
55633;SDS011;41504;53.162;6.788;2023-04-02T06:13:49;6.75;;;1.90;;
55633;SDS011;41504;53.162;6.788;2023-04-02T06:16:24;8.32;;;1.83;;
55633;SDS011;41504;53.162;6.788;2023-04-02T06:18:52;5.90;;;1.70;;
55633;SDS011;41504;53.162;6.788;2023-04-02T06:21:18;6.55;;;1.88;;
55633;SDS011;41504;53.162;6.788;2023-04-02T06:23:49;5.75;;;2.03;;
55633;SDS011;41504;53.162;6.788;2023-04-02T06:26:31;8.02;;;1.80;;
55633;SDS011;41504;53.162;6.788;2023-04-02T06:29:07;6.25;;;1.88;;
55633;SDS011;41504;53.162;6.788;2023-04-02T06:31:48;8.40;;;2.00;;
55633;SDS011;41504;53.162;6.788;2023-04-02T06:34:17;8.65;;;2.00;;
55633;SDS011;41504;53.162;6.788;2023-04-02T06:36:45;8.23;;;1.98;;
55633;SDS011;41504;53.162;6.788;2023-04-02T06:39:17;6.70;;;1.70;;
55633;SDS011;41504;53.162;6.788;2023-04-02T06:41:46;6.57;;;1.85;;
55633;SDS011;41504;53.162;6.788;2023-04-02T06:44:26;4.80;;;1.70;;
55633;SDS011;41504;53.162;6.788;2023-04-02T06:47:00;6.93;;;2.10;;
55633;SDS011;41504;53.162;6.788;2023-04-02T06:52:12;7.15;;;2.13;;
55633;SDS011;41504;53.162;6.788;2023-04-02T06:54:48;6.70;;;1.98;;
55633;SDS011;41504;53.162;6.788;2023-04-02T06:57:13;6.35;;;1.60;;
55633;SDS011;41504;53.162;6.788;2023-04-02T06:59:39;6.25;;;1.70;;
55633;SDS011;41504;53.162;6.788;2023-04-02T07:05:03;6.10;;;1.52;;
55633;SDS011;41504;53.162;6.788;2023-04-02T07:07:33;6.75;;;2.17;;
55633;SDS011;41504;53.162;6.788;2023-04-02T07:09:58;4.10;;;1.40;;
55633;SDS011;41504;53.162;6.788;2023-04-02T07:12:24;6.63;;;1.70;;
55633;SDS011;41504;53.162;6.788;2023-04-02T07:14:51;7.65;;;2.08;;
55633;SDS011;41504;53.162;6.788;2023-04-02T07:17:17;6.63;;;1.83;;
55633;SDS011;41504;53.162;6.788;2023-04-02T07:19:45;4.95;;;1.80;;
55633;SDS011;41504;53.162;6.788;2023-04-02T07:22:17;4.63;;;1.60;;
55633;SDS011;41504;53.162;6.788;2023-04-02T07:24:44;6.15;;;1.67;;
55633;SDS011;41504;53.162;6.788;2023-04-02T07:27:10;5.78;;;1.90;;
55633;SDS011;41504;53.162;6.788;2023-04-02T07:29:41;4.88;;;1.60;;
55633;SDS011;41504;53.162;6.788;2023-04-02T07:32:13;7.15;;;1.83;;
55633;SDS011;41504;53.162;6.788;2023-04-02T07:34:39;4.40;;;1.50;;
55633;SDS011;41504;53.162;6.788;2023-04-02T07:37:06;7.22;;;2.05;;
55633;SDS011;41504;53.162;6.788;2023-04-02T07:39:33;6.22;;;2.10;;
55633;SDS011;41504;53.162;6.788;2023-04-02T07:41:59;4.78;;;1.60;;
55633;SDS011;41504;53.162;6.788;2023-04-02T07:44:26;6.05;;;2.00;;
55633;SDS011;41504;53.162;6.788;2023-04-02T07:46:52;6.78;;;2.13;;
55633;SDS011;41504;53.162;6.788;2023-04-02T07:49:19;4.90;;;1.73;;
55633;SDS011;41504;53.162;6.788;2023-04-02T07:51:45;4.90;;;1.70;;
55633;SDS011;41504;53.162;6.788;2023-04-02T07:54:15;6.70;;;1.88;;
55633;SDS011;41504;53.162;6.788;2023-04-02T07:56:41;6.68;;;1.80;;
55633;SDS011;41504;53.162;6.788;2023-04-02T07:59:06;6.10;;;1.88;;
55633;SDS011;41504;53.162;6.788;2023-04-02T08:01:32;6.00;;;1.90;;
55633;SDS011;41504;53.162;6.788;2023-04-02T08:03:59;5.88;;;1.90;;
55633;SDS011;41504;53.162;6.788;2023-04-02T08:06:26;6.57;;;1.90;;
55633;SDS011;41504;53.162;6.788;2023-04-02T08:08:52;6.13;;;1.63;;
55633;SDS011;41504;53.162;6.788;2023-04-02T08:11:18;6.05;;;2.08;;
55633;SDS011;41504;53.162;6.788;2023-04-02T08:13:44;5.95;;;1.60;;
55633;SDS011;41504;53.162;6.788;2023-04-02T08:16:10;5.22;;;1.80;;
55633;SDS011;41504;53.162;6.788;2023-04-02T08:18:36;4.55;;;1.52;;
55633;SDS011;41504;53.162;6.788;2023-04-02T08:21:04;3.83;;;1.50;;
55633;SDS011;41504;53.162;6.788;2023-04-02T08:23:31;7.57;;;2.55;;
55633;SDS011;41504;53.162;6.788;2023-04-02T08:25:57;7.28;;;2.25;;
55633;SDS011;41504;53.162;6.788;2023-04-02T08:28:23;5.35;;;1.80;;
55633;SDS011;41504;53.162;6.788;2023-04-02T08:30:49;5.50;;;1.77;;
55633;SDS011;41504;53.162;6.788;2023-04-02T08:33:15;5.05;;;1.52;;
55633;SDS011;41504;53.162;6.788;2023-04-02T08:35:42;4.75;;;1.77;;
55633;SDS011;41504;53.162;6.788;2023-04-02T08:38:11;4.13;;;1.55;;
55633;SDS011;41504;53.162;6.788;2023-04-02T08:40:40;5.50;;;1.88;;
55633;SDS011;41504;53.162;6.788;2023-04-02T08:43:12;4.95;;;1.67;;
55633;SDS011;41504;53.162;6.788;2023-04-02T08:48:31;5.95;;;1.80;;
55633;SDS011;41504;53.162;6.788;2023-04-02T08:50:59;6.32;;;1.88;;
55633;SDS011;41504;53.162;6.788;2023-04-02T08:53:32;6.05;;;2.00;;
55633;SDS011;41504;53.162;6.788;2023-04-02T08:56:13;5.25;;;1.70;;
55633;SDS011;41504;53.162;6.788;2023-04-02T09:01:20;7.10;;;2.15;;
55633;SDS011;41504;53.162;6.788;2023-04-02T09:04:21;5.68;;;1.70;;
55633;SDS011;41504;53.162;6.788;2023-04-02T09:06:48;5.85;;;1.75;;
55633;SDS011;41504;53.162;6.788;2023-04-02T09:09:17;4.10;;;1.67;;
55633;SDS011;41504;53.162;6.788;2023-04-02T09:11:54;5.40;;;1.70;;
55633;SDS011;41504;53.162;6.788;2023-04-02T09:17:01;4.60;;;1.65;;
55633;SDS011;41504;53.162;6.788;2023-04-02T09:22:21;5.97;;;1.67;;
55633;SDS011;41504;53.162;6.788;2023-04-02T09:24:52;6.78;;;1.92;;
55633;SDS011;41504;53.162;6.788;2023-04-02T09:27:21;4.43;;;1.83;;
55633;SDS011;41504;53.162;6.788;2023-04-02T09:30:13;6.38;;;2.10;;
55633;SDS011;41504;53.162;6.788;2023-04-02T09:35:30;5.22;;;1.70;;
55633;SDS011;41504;53.162;6.788;2023-04-02T09:40:32;5.22;;;1.80;;
55633;SDS011;41504;53.162;6.788;2023-04-02T09:45:43;6.13;;;1.70;;
55633;SDS011;41504;53.162;6.788;2023-04-02T09:48:23;6.22;;;1.67;;
55633;SDS011;41504;53.162;6.788;2023-04-02T09:53:36;7.32;;;2.10;;
55633;SDS011;41504;53.162;6.788;2023-04-02T09:56:11;5.45;;;1.80;;
55633;SDS011;41504;53.162;6.788;2023-04-02T09:58:41;5.28;;;1.98;;
55633;SDS011;41504;53.162;6.788;2023-04-02T10:01:24;3.80;;;1.60;;
55633;SDS011;41504;53.162;6.788;2023-04-02T10:03:52;5.13;;;1.60;;
55633;SDS011;41504;53.162;6.788;2023-04-02T10:06:19;5.55;;;1.60;;
55633;SDS011;41504;53.162;6.788;2023-04-02T10:08:45;4.47;;;1.50;;
55633;SDS011;41504;53.162;6.788;2023-04-02T10:11:12;4.47;;;1.70;;
55633;SDS011;41504;53.162;6.788;2023-04-02T10:16:16;6.20;;;2.00;;
55633;SDS011;41504;53.162;6.788;2023-04-02T10:18:50;4.25;;;1.50;;
55633;SDS011;41504;53.162;6.788;2023-04-02T10:21:20;4.35;;;1.38;;
55633;SDS011;41504;53.162;6.788;2023-04-02T10:23:50;3.85;;;1.48;;
55633;SDS011;41504;53.162;6.788;2023-04-02T10:26:21;4.78;;;1.40;;
55633;SDS011;41504;53.162;6.788;2023-04-02T10:32:04;6.18;;;1.75;;
55633;SDS011;41504;53.162;6.788;2023-04-02T10:40:15;5.22;;;1.58;;
55633;SDS011;41504;53.162;6.788;2023-04-02T10:50:56;5.55;;;1.63;;
55633;SDS011;41504;53.162;6.788;2023-04-02T10:53:31;5.20;;;1.60;;
55633;SDS011;41504;53.162;6.788;2023-04-02T10:56:16;5.68;;;1.50;;
55633;SDS011;41504;53.162;6.788;2023-04-02T10:58:47;4.82;;;1.45;;
55633;SDS011;41504;53.162;6.788;2023-04-02T11:01:24;3.67;;;1.50;;
55633;SDS011;41504;53.162;6.788;2023-04-02T11:03:55;4.32;;;1.38;;
55633;SDS011;41504;53.162;6.788;2023-04-02T11:09:06;3.58;;;1.52;;
55633;SDS011;41504;53.162;6.788;2023-04-02T11:11:41;5.05;;;1.38;;
55633;SDS011;41504;53.162;6.788;2023-04-02T11:14:14;3.08;;;1.23;;
55633;SDS011;41504;53.162;6.788;2023-04-02T11:16:41;4.45;;;1.23;;
55633;SDS011;41504;53.162;6.788;2023-04-02T11:21:37;4.47;;;1.20;;
55633;SDS011;41504;53.162;6.788;2023-04-02T11:26:48;4.63;;;1.50;;
55633;SDS011;41504;53.162;6.788;2023-04-02T11:29:18;4.72;;;1.48;;
55633;SDS011;41504;53.162;6.788;2023-04-02T11:31:47;3.70;;;1.50;;
55633;SDS011;41504;53.162;6.788;2023-04-02T11:39:58;3.40;;;1.33;;
55633;SDS011;41504;53.162;6.788;2023-04-02T11:42:31;2.28;;;1.20;;
55633;SDS011;41504;53.162;6.788;2023-04-02T11:45:00;4.63;;;1.20;;
55633;SDS011;41504;53.162;6.788;2023-04-02T11:50:32;3.22;;;1.25;;
55633;SDS011;41504;53.162;6.788;2023-04-02T11:55:28;6.32;;;1.70;;
55633;SDS011;41504;53.162;6.788;2023-04-02T11:57:59;2.78;;;1.05;;
55633;SDS011;41504;53.162;6.788;2023-04-02T12:11:53;3.72;;;1.20;;
55633;SDS011;41504;53.162;6.788;2023-04-02T12:16:57;4.88;;;1.40;;
55633;SDS011;41504;53.162;6.788;2023-04-02T12:19:23;4.25;;;1.30;;
55633;SDS011;41504;53.162;6.788;2023-04-02T12:21:51;3.30;;;1.10;;
55633;SDS011;41504;53.162;6.788;2023-04-02T12:24:20;5.88;;;1.38;;
55633;SDS011;41504;53.162;6.788;2023-04-02T12:26:48;4.57;;;1.40;;
55633;SDS011;41504;53.162;6.788;2023-04-02T12:29:52;4.88;;;1.20;;
55633;SDS011;41504;53.162;6.788;2023-04-02T12:32:22;3.75;;;1.20;;
55633;SDS011;41504;53.162;6.788;2023-04-02T12:34:52;3.00;;;1.20;;
55633;SDS011;41504;53.162;6.788;2023-04-02T12:37:24;3.60;;;1.27;;
55633;SDS011;41504;53.162;6.788;2023-04-02T12:39:52;2.55;;;1.13;;
55633;SDS011;41504;53.162;6.788;2023-04-02T12:42:38;3.85;;;1.45;;
55633;SDS011;41504;53.162;6.788;2023-04-02T12:45:04;2.00;;;1.00;;
55633;SDS011;41504;53.162;6.788;2023-04-02T12:47:31;4.43;;;1.20;;
55633;SDS011;41504;53.162;6.788;2023-04-02T12:49:58;2.47;;;1.20;;
55633;SDS011;41504;53.162;6.788;2023-04-02T12:52:26;3.38;;;1.35;;
55633;SDS011;41504;53.162;6.788;2023-04-02T12:54:54;4.32;;;1.20;;
55633;SDS011;41504;53.162;6.788;2023-04-02T12:59:51;3.30;;;1.25;;
55633;SDS011;41504;53.162;6.788;2023-04-02T13:02:18;4.28;;;1.52;;
55633;SDS011;41504;53.162;6.788;2023-04-02T13:04:46;3.42;;;1.20;;
55633;SDS011;41504;53.162;6.788;2023-04-02T13:07:20;3.83;;;1.23;;
55633;SDS011;41504;53.162;6.788;2023-04-02T13:09:53;3.75;;;1.20;;
55633;SDS011;41504;53.162;6.788;2023-04-02T13:12:34;3.30;;;1.30;;
55633;SDS011;41504;53.162;6.788;2023-04-02T13:15:03;2.78;;;1.33;;
55633;SDS011;41504;53.162;6.788;2023-04-02T13:17:41;3.33;;;1.27;;
55633;SDS011;41504;53.162;6.788;2023-04-02T13:25:54;5.75;;;1.45;;
55633;SDS011;41504;53.162;6.788;2023-04-02T13:28:34;2.03;;;1.05;;
55633;SDS011;41504;53.162;6.788;2023-04-02T13:31:00;4.22;;;1.30;;
55633;SDS011;41504;53.162;6.788;2023-04-02T13:33:26;3.65;;;1.40;;
55633;SDS011;41504;53.162;6.788;2023-04-02T13:35:52;5.00;;;1.45;;
55633;SDS011;41504;53.162;6.788;2023-04-02T13:38:18;2.65;;;1.20;;
55633;SDS011;41504;53.162;6.788;2023-04-02T13:40:43;2.35;;;1.10;;
55633;SDS011;41504;53.162;6.788;2023-04-02T13:43:17;2.80;;;1.10;;
55633;SDS011;41504;53.162;6.788;2023-04-02T13:45:45;2.15;;;1.25;;
55633;SDS011;41504;53.162;6.788;2023-04-02T13:48:14;3.65;;;1.20;;
55633;SDS011;41504;53.162;6.788;2023-04-02T13:50:42;4.72;;;1.20;;
55633;SDS011;41504;53.162;6.788;2023-04-02T13:53:12;3.05;;;1.10;;
55633;SDS011;41504;53.162;6.788;2023-04-02T13:55:53;2.78;;;1.33;;
55633;SDS011;41504;53.162;6.788;2023-04-02T13:58:19;2.88;;;1.10;;
55633;SDS011;41504;53.162;6.788;2023-04-02T14:00:45;3.67;;;1.30;;
55633;SDS011;41504;53.162;6.788;2023-04-02T14:03:13;4.38;;;1.20;;
55633;SDS011;41504;53.162;6.788;2023-04-02T14:11:15;3.90;;;1.40;;
55633;SDS011;41504;53.162;6.788;2023-04-02T14:16:50;3.88;;;1.50;;
55633;SDS011;41504;53.162;6.788;2023-04-02T14:28:27;3.15;;;1.17;;
55633;SDS011;41504;53.162;6.788;2023-04-02T14:31:07;3.63;;;1.20;;
55633;SDS011;41504;53.162;6.788;2023-04-02T14:33:50;3.83;;;1.50;;
55633;SDS011;41504;53.162;6.788;2023-04-02T14:39:21;4.18;;;1.20;;
55633;SDS011;41504;53.162;6.788;2023-04-02T14:42:49;3.08;;;1.40;;
55633;SDS011;41504;53.162;6.788;2023-04-02T14:48:15;3.10;;;1.20;;
55633;SDS011;41504;53.162;6.788;2023-04-02T14:50:39;3.70;;;1.17;;
55633;SDS011;41504;53.162;6.788;2023-04-02T14:54:08;3.28;;;1.40;;
55633;SDS011;41504;53.162;6.788;2023-04-02T14:56:09;2.70;;;1.30;;
55633;SDS011;41504;53.162;6.788;2023-04-02T14:58:37;4.20;;;1.40;;
55633;SDS011;41504;53.162;6.788;2023-04-02T15:01:12;2.03;;;1.13;;
55633;SDS011;41504;53.162;6.788;2023-04-02T15:03:46;2.30;;;1.10;;
55633;SDS011;41504;53.162;6.788;2023-04-02T15:06:20;5.43;;;1.40;;
55633;SDS011;41504;53.162;6.788;2023-04-02T15:08:53;3.90;;;1.40;;
55633;SDS011;41504;53.162;6.788;2023-04-02T15:11:31;5.18;;;1.40;;
55633;SDS011;41504;53.162;6.788;2023-04-02T15:14:15;13.35;;;6.50;;
55633;SDS011;41504;53.162;6.788;2023-04-02T15:16:52;5.15;;;1.88;;
55633;SDS011;41504;53.162;6.788;2023-04-02T15:19:18;4.78;;;1.70;;
55633;SDS011;41504;53.162;6.788;2023-04-02T15:27:03;3.00;;;1.20;;
55633;SDS011;41504;53.162;6.788;2023-04-02T15:33:28;3.97;;;1.30;;
55633;SDS011;41504;53.162;6.788;2023-04-02T15:42:12;4.38;;;1.40;;
55633;SDS011;41504;53.162;6.788;2023-04-02T15:57:17;2.83;;;1.40;;
55633;SDS011;41504;53.162;6.788;2023-04-02T16:01:57;3.38;;;1.20;;
55633;SDS011;41504;53.162;6.788;2023-04-02T16:04:37;4.90;;;1.57;;
55633;SDS011;41504;53.162;6.788;2023-04-02T16:07:35;3.63;;;1.20;;
55633;SDS011;41504;53.162;6.788;2023-04-02T16:13:00;4.50;;;1.10;;
55633;SDS011;41504;53.162;6.788;2023-04-02T16:15:49;2.17;;;1.20;;
55633;SDS011;41504;53.162;6.788;2023-04-02T16:18:32;3.70;;;1.30;;
55633;SDS011;41504;53.162;6.788;2023-04-02T16:21:21;3.47;;;1.30;;
55633;SDS011;41504;53.162;6.788;2023-04-02T16:23:52;4.30;;;1.20;;
55633;SDS011;41504;53.162;6.788;2023-04-02T16:35:22;4.57;;;1.30;;
55633;SDS011;41504;53.162;6.788;2023-04-02T16:37:50;4.03;;;1.13;;
55633;SDS011;41504;53.162;6.788;2023-04-02T16:51:44;2.58;;;1.23;;
55633;SDS011;41504;53.162;6.788;2023-04-02T16:59:17;3.58;;;1.50;;
55633;SDS011;41504;53.162;6.788;2023-04-02T17:07:55;2.75;;;1.10;;
55633;SDS011;41504;53.162;6.788;2023-04-02T17:10:36;3.38;;;1.30;;
55633;SDS011;41504;53.162;6.788;2023-04-02T17:13:43;2.75;;;1.20;;
55633;SDS011;41504;53.162;6.788;2023-04-02T17:16:15;2.63;;;1.20;;
55633;SDS011;41504;53.162;6.788;2023-04-02T17:18:47;2.53;;;1.20;;
55633;SDS011;41504;53.162;6.788;2023-04-02T17:21:20;4.28;;;2.10;;
55633;SDS011;41504;53.162;6.788;2023-04-02T17:24:05;2.28;;;1.20;;
55633;SDS011;41504;53.162;6.788;2023-04-02T17:26:42;3.25;;;1.30;;
55633;SDS011;41504;53.162;6.788;2023-04-02T17:29:34;2.70;;;1.20;;
55633;SDS011;41504;53.162;6.788;2023-04-02T17:32:26;2.22;;;1.20;;
55633;SDS011;41504;53.162;6.788;2023-04-02T17:35:15;2.80;;;1.13;;
55633;SDS011;41504;53.162;6.788;2023-04-02T17:40:42;4.38;;;1.48;;
55633;SDS011;41504;53.162;6.788;2023-04-02T17:46:31;2.78;;;1.10;;
55633;SDS011;41504;53.162;6.788;2023-04-02T17:49:17;2.75;;;1.35;;
55633;SDS011;41504;53.162;6.788;2023-04-02T18:01:04;4.10;;;1.25;;
55633;SDS011;41504;53.162;6.788;2023-04-02T18:17:51;4.25;;;1.65;;
55633;SDS011;41504;53.162;6.788;2023-04-02T18:25:57;3.75;;;1.65;;
55633;SDS011;41504;53.162;6.788;2023-04-02T18:34:13;5.32;;;2.30;;
55633;SDS011;41504;53.162;6.788;2023-04-02T18:36:52;9.15;;;2.63;;
55633;SDS011;41504;53.162;6.788;2023-04-02T18:45:35;11.68;;;4.45;;
55633;SDS011;41504;53.162;6.788;2023-04-02T18:50:56;4.30;;;2.05;;
55633;SDS011;41504;53.162;6.788;2023-04-02T18:53:24;4.13;;;2.00;;
55633;SDS011;41504;53.162;6.788;2023-04-02T18:55:54;4.32;;;1.63;;
55633;SDS011;41504;53.162;6.788;2023-04-02T18:58:44;3.13;;;1.50;;
55633;SDS011;41504;53.162;6.788;2023-04-02T19:01:12;3.83;;;1.70;;
55633;SDS011;41504;53.162;6.788;2023-04-02T19:03:50;3.28;;;1.50;;
55633;SDS011;41504;53.162;6.788;2023-04-02T19:06:24;3.63;;;1.63;;
55633;SDS011;41504;53.162;6.788;2023-04-02T19:08:57;4.95;;;1.50;;
55633;SDS011;41504;53.162;6.788;2023-04-02T19:11:26;3.80;;;1.52;;
55633;SDS011;41504;53.162;6.788;2023-04-02T19:14:00;4.03;;;1.60;;
55633;SDS011;41504;53.162;6.788;2023-04-02T19:19:25;3.58;;;1.67;;
55633;SDS011;41504;53.162;6.788;2023-04-02T19:33:03;5.55;;;1.83;;
55633;SDS011;41504;53.162;6.788;2023-04-02T19:41:47;3.47;;;1.65;;
55633;SDS011;41504;53.162;6.788;2023-04-02T19:44:17;4.25;;;1.90;;
55633;SDS011;41504;53.162;6.788;2023-04-02T19:46:44;3.53;;;1.60;;
55633;SDS011;41504;53.162;6.788;2023-04-02T19:49:15;4.78;;;1.90;;
55633;SDS011;41504;53.162;6.788;2023-04-02T19:51:47;3.78;;;1.58;;
55633;SDS011;41504;53.162;6.788;2023-04-02T19:54:13;4.70;;;1.80;;
55633;SDS011;41504;53.162;6.788;2023-04-02T19:56:39;3.67;;;1.50;;
55633;SDS011;41504;53.162;6.788;2023-04-02T19:59:07;4.85;;;1.58;;
55633;SDS011;41504;53.162;6.788;2023-04-02T20:01:33;4.75;;;1.90;;
55633;SDS011;41504;53.162;6.788;2023-04-02T20:03:59;4.07;;;1.60;;
55633;SDS011;41504;53.162;6.788;2023-04-02T20:06:25;4.43;;;1.65;;
55633;SDS011;41504;53.162;6.788;2023-04-02T20:08:54;4.68;;;1.73;;
55633;SDS011;41504;53.162;6.788;2023-04-02T20:11:20;5.28;;;1.75;;
55633;SDS011;41504;53.162;6.788;2023-04-02T20:13:46;5.10;;;1.50;;
55633;SDS011;41504;53.162;6.788;2023-04-02T20:16:14;2.88;;;1.40;;
55633;SDS011;41504;53.162;6.788;2023-04-02T20:18:40;4.25;;;1.75;;
55633;SDS011;41504;53.162;6.788;2023-04-02T20:21:07;4.72;;;1.80;;
55633;SDS011;41504;53.162;6.788;2023-04-02T20:23:33;4.85;;;1.67;;
55633;SDS011;41504;53.162;6.788;2023-04-02T20:26:00;4.63;;;1.90;;
55633;SDS011;41504;53.162;6.788;2023-04-02T20:28:27;6.05;;;2.13;;
55633;SDS011;41504;53.162;6.788;2023-04-02T20:30:54;3.78;;;1.63;;
55633;SDS011;41504;53.162;6.788;2023-04-02T20:33:33;4.65;;;1.90;;
55633;SDS011;41504;53.162;6.788;2023-04-02T20:36:00;5.03;;;1.60;;
55633;SDS011;41504;53.162;6.788;2023-04-02T20:38:28;5.63;;;1.83;;
55633;SDS011;41504;53.162;6.788;2023-04-02T20:40:54;3.75;;;1.80;;
55633;SDS011;41504;53.162;6.788;2023-04-02T20:43:21;3.97;;;1.70;;
55633;SDS011;41504;53.162;6.788;2023-04-02T20:45:57;4.13;;;1.70;;
55633;SDS011;41504;53.162;6.788;2023-04-02T20:48:25;5.47;;;1.80;;
55633;SDS011;41504;53.162;6.788;2023-04-02T20:50:54;6.05;;;1.80;;
55633;SDS011;41504;53.162;6.788;2023-04-02T20:53:21;4.85;;;1.88;;
55633;SDS011;41504;53.162;6.788;2023-04-02T20:55:47;5.20;;;1.60;;